Poplar Bluff, MO

2:25 AM CDT on August 23, 2017 (GMT -0500)
Poplar Bluff Municipal

Weather History for KPOF - February, 2014

Change the Weather History Date:

Tuesday, February 4, 2014

  Actual Average Record
Temperature  
Mean Temperature 28 °F -  
Max Temperature 32 °F 44 °F 76 °F (1927)
Min Temperature 25 °F 25 °F -1 °F (1939)
Degree Days  
Heating Degree Days 36    
Moisture  
Dew Point 24 °F    
Average Humidity 79    
Maximum Humidity 87    
Minimum Humidity 66    
Precipitation  
Precipitation 0.38 in - - ()
Sea Level Pressure  
Sea Level Pressure 30.02 in    
Wind  
Wind Speed 11 mph (NE)    
Max Wind Speed 20 mph    
Max Gust Speed 24 mph    
Visibility 4 miles    
Events Rain , Snow    
Averages and records for this station are not official NWS values.
T = Trace of Precipitation, MM = Missing Value Source: NWS Daily Summary

Daily Weather History Graph

Daily Weather History Graph

Search for Another Location

Airport or City:

Trip Planner

Search our weather history database for the weather conditions in past years. The results will help you decide how hot, cold, wet, or windy it might be!

Date:

Astronomy

Feb. 04, 2014 Rise Set
Actual Time 7:00 AM CST 5:30 PM CST
Civil Twilight 6:33 AM CST 5:57 PM CST
Nautical Twilight 6:02 AM CST 6:28 PM CST
Astronomical Twilight 5:32 AM CST 6:58 PM CST
Moon 9:48 AM CST (2/4) 11:13 PM CST (2/4)
Length of Visible Light 11h 23m
Length of Day
10h 29m
Waxing Crescent, 29% of the Moon is Illuminated
Feb 4
Waxing Crescent
Feb 6
First Quarter
Feb 14
Full
Feb 22
Last Quarter
Mar 1
New

Hourly Weather History & Observations

Time (CST) Temp. Windchill Dew Point Humidity Pressure Visibility Wind Dir Wind Speed Gust Speed Precip Events Conditions
12:53 AM 25.0 °F 16.3 °F 17.1 °F 72% 30.27 in 10.0 mi NE 8.1 mph - N/A   Clear
1:53 AM 26.1 °F 16.8 °F 17.1 °F 69% 30.26 in 10.0 mi NNE 9.2 mph - N/A   Clear
2:53 AM 27.0 °F 18.0 °F 17.1 °F 66% 30.27 in 10.0 mi NNE 9.2 mph - N/A   Clear
3:53 AM 26.1 °F 16.8 °F 17.1 °F 69% 30.26 in 10.0 mi NNE 9.2 mph - N/A   Clear
4:53 AM 26.1 °F 17.6 °F 18.0 °F 71% 30.25 in 9.0 mi NE 8.1 mph - N/A   Clear
5:53 AM 26.1 °F 15.6 °F 18.0 °F 71% 30.22 in 8.0 mi ENE 11.5 mph - N/A   Clear
6:53 AM 27.0 °F 18.0 °F 19.0 °F 72% 30.24 in 9.0 mi NE 9.2 mph - N/A   Clear
7:53 AM 27.0 °F 15.6 °F 19.0 °F 72% 30.19 in 8.0 mi NE 13.8 mph - N/A   Mostly Cloudy
8:36 AM 28.0 °F 20.0 °F 19.9 °F 72% 30.22 in 8.0 mi NNE 8.1 mph - N/A   Overcast
8:43 AM 28.0 °F 20.8 °F 19.9 °F 72% 30.22 in 8.0 mi NE 6.9 mph - N/A   Overcast
8:53 AM 28.0 °F 18.1 °F 19.9 °F 72% 30.24 in 8.0 mi NNE 11.5 mph - N/A   Overcast
9:40 AM 28.9 °F 20.4 °F 19.9 °F 69% 30.18 in 8.0 mi NNE 9.2 mph - N/A   Overcast
9:53 AM 28.9 °F 16.5 °F 21.0 °F 72% 30.20 in 7.0 mi NNE 18.4 mph - N/A   Overcast
10:40 AM 28.9 °F 18.6 °F 21.0 °F 72% 30.18 in 2.5 mi NE 12.7 mph - 0.00 in Snow Light Snow
10:49 AM 28.4 °F 19.1 °F 21.2 °F 74% 30.18 in 5.0 mi ENE 10.4 mph - 0.01 in Snow Light Snow
10:53 AM 28.9 °F 19.2 °F 21.9 °F 75% 30.19 in 6.0 mi NE 11.5 mph - 0.01 in   Haze
11:34 AM 28.9 °F 17.3 °F 21.9 °F 75% 30.08 in 1.5 mi ENE 16.1 mph 23.0 mph 0.00 in Snow Light Snow
11:42 AM 28.9 °F 17.7 °F 23.0 °F 78% 30.05 in 0.5 mi ENE 15.0 mph - 0.01 in Snow Snow
11:53 AM 28.9 °F 16.9 °F 23.0 °F 78% 30.06 in 1.0 mi NE 17.3 mph 24.2 mph 0.04 in Snow Light Snow
12:00 PM 28.9 °F 16.9 °F 23.0 °F 78% 30.03 in 2.0 mi NE 17.3 mph - 0.00 in Snow Light Snow
12:08 PM 28.9 °F 17.7 °F 23.0 °F 78% 30.02 in 3.0 mi NE 15.0 mph - 0.00 in   Overcast
12:19 PM 28.9 °F 16.5 °F 23.0 °F 78% 29.99 in 4.0 mi NE 18.4 mph - 0.00 in   Overcast
12:28 PM 30.0 °F 18.3 °F 24.1 °F 79% 29.98 in 2.5 mi NE 17.3 mph - 0.01 in Rain Light Freezing Rain
12:48 PM 30.2 °F 20.2 °F 24.8 °F 80% 30.00 in 3.0 mi NE 12.7 mph 23.0 mph 0.03 in Rain Light Freezing Rain
12:53 PM 30.0 °F 19.1 °F 24.1 °F 79% 30.01 in 4.0 mi NE 15.0 mph - 0.03 in Rain Light Freezing Rain
1:08 PM 30.9 °F 19.8 °F 25.0 °F 79% 29.98 in 2.5 mi ENE 16.1 mph 23.0 mph 0.01 in Rain Light Freezing Rain
1:23 PM 30.9 °F 20.7 °F 25.0 °F 79% 29.96 in 3.0 mi NE 13.8 mph - 0.02 in Rain Light Freezing Rain
1:31 PM 30.9 °F 19.4 °F 25.0 °F 79% 29.95 in 2.5 mi NE 17.3 mph - 0.03 in Rain Light Freezing Rain
1:46 PM 30.9 °F 18.7 °F 26.1 °F 82% 29.92 in 2.0 mi NE 19.6 mph 24.2 mph 0.04 in Rain Light Freezing Rain
1:53 PM 30.9 °F 20.7 °F 26.1 °F 82% 29.95 in 2.0 mi NE 13.8 mph 24.2 mph 0.06 in Rain Light Freezing Rain
2:04 PM 30.9 °F 19.4 °F 26.1 °F 82% 29.93 in 2.5 mi NNE 17.3 mph - 0.02 in Rain Light Freezing Rain
2:10 PM 30.9 °F 19.8 °F 26.1 °F 82% 29.93 in 3.0 mi NNE 16.1 mph - 0.02 in   Overcast
2:22 PM 30.9 °F 21.2 °F 26.1 °F 82% 29.94 in 2.5 mi NE 12.7 mph - 0.04 in Rain Light Freezing Rain
2:41 PM 32.0 °F 23.0 °F 26.1 °F 79% 29.92 in 2.5 mi NE 11.5 mph - 0.09 in Rain Light Freezing Rain
2:53 PM 32.0 °F 22.5 °F 26.1 °F 79% 29.95 in 3.0 mi NNE 12.7 mph - 0.09 in Rain Light Freezing Rain
3:08 PM 32.0 °F 23.0 °F 27.0 °F 82% 29.92 in 2.5 mi NNE 11.5 mph - 0.01 in Rain Light Freezing Rain
3:19 PM 32.0 °F 23.0 °F 27.0 °F 82% 29.92 in 2.0 mi NE 11.5 mph - 0.03 in Rain Light Freezing Rain
3:25 PM 32.0 °F 23.0 °F 27.0 °F 82% 29.92 in 1.8 mi NE 11.5 mph - 0.05 in Rain Light Freezing Rain
3:39 PM 32.0 °F 22.1 °F 27.0 °F 82% 29.90 in 2.5 mi NE 13.8 mph - 0.07 in Rain Light Freezing Rain
3:53 PM 32.0 °F 23.6 °F 27.0 °F 82% 29.94 in 4.0 mi NE 10.4 mph - 0.08 in Rain Light Freezing Rain
4:21 PM 32.0 °F 23.0 °F 27.0 °F 82% 29.91 in 2.0 mi NE 11.5 mph - 0.01 in Rain Light Freezing Rain
4:29 PM 32.0 °F 23.0 °F 27.0 °F 82% 29.91 in 2.0 mi NE 11.5 mph - 0.02 in Rain Light Freezing Rain
4:36 PM 32.0 °F 23.0 °F 27.0 °F 82% 29.90 in 2.0 mi NE 11.5 mph - 0.03 in   Overcast
4:43 PM 32.0 °F 23.0 °F 27.0 °F 82% 29.89 in 2.0 mi ENE 11.5 mph - 0.04 in Rain Light Freezing Rain
4:53 PM 32.0 °F 24.2 °F 27.0 °F 82% 29.91 in 2.5 mi NE 9.2 mph - 0.05 in Rain Light Freezing Rain
5:05 PM 32.0 °F 23.0 °F 27.0 °F 82% 29.87 in 3.0 mi NE 11.5 mph - 0.01 in Rain Light Freezing Rain
5:53 PM 32.0 °F 24.2 °F 27.0 °F 82% 29.92 in 7.0 mi NNE 9.2 mph - 0.02 in Rain Light Freezing Rain
6:06 PM 32.0 °F 26.4 °F 27.0 °F 82% 29.91 in 5.0 mi NNE 5.8 mph - 0.00 in   Haze
6:24 PM 32.0 °F 24.2 °F 27.0 °F 82% 29.91 in 7.0 mi NE 9.2 mph - 0.00 in   Overcast
6:39 PM 32.0 °F 25.6 °F 27.0 °F 82% 29.91 in 4.0 mi NE 6.9 mph - 0.00 in   Haze
6:47 PM 32.0 °F 26.4 °F 28.4 °F 87% 29.90 in 2.5 mi NE 5.8 mph - 0.00 in   Overcast
6:53 PM 32.0 °F 25.6 °F 28.0 °F 85% 29.92 in 2.0 mi NNE 6.9 mph - 0.00 in   Overcast
7:44 PM 32.0 °F 24.8 °F 28.0 °F 85% 29.90 in 2.5 mi NNE 8.1 mph - N/A   Overcast
7:53 PM 32.0 °F 24.8 °F 28.0 °F 85% 29.92 in 3.0 mi NNE 8.1 mph - N/A   Overcast
8:17 PM 32.0 °F 26.4 °F 28.0 °F 85% 29.90 in 2.5 mi NNW 5.8 mph - N/A   Overcast
8:31 PM 32.0 °F 26.4 °F 28.0 °F 85% 29.90 in 3.0 mi NNW 5.8 mph - N/A   Overcast
8:53 PM 32.0 °F 26.4 °F 28.0 °F 85% 29.93 in 3.0 mi NNW 5.8 mph - N/A   Overcast
9:53 PM 32.0 °F 23.6 °F 27.0 °F 82% 29.94 in 7.0 mi NW 10.4 mph - N/A   Overcast
10:53 PM 30.9 °F 23.5 °F 25.0 °F 79% 29.93 in 7.0 mi NW 8.1 mph - N/A   Overcast
11:53 PM 30.0 °F 22.4 °F 25.0 °F 82% 29.95 in 7.0 mi WNW 8.1 mph - N/A   Overcast